createdAt,value
2023-04-04T00:01:28.968Z,100.00
2023-04-04T00:05:33.043Z,100.00
2023-04-04T00:09:36.334Z,100.00
2023-04-04T00:13:39.982Z,100.00
2023-04-04T00:17:47.105Z,100.00
2023-04-04T00:21:51.707Z,100.00
2023-04-04T00:25:55.464Z,100.00
2023-04-04T00:29:58.614Z,100.00
2023-04-04T00:34:04.612Z,100.00
2023-04-04T00:38:08.026Z,100.00
2023-04-04T00:42:12.222Z,100.00
2023-04-04T00:46:17.831Z,100.00
2023-04-04T00:50:23.532Z,100.00
2023-04-04T00:54:26.814Z,100.00
2023-04-04T00:58:31.733Z,100.00
2023-04-04T01:02:34.928Z,100.00
2023-04-04T01:06:39.486Z,100.00
2023-04-04T01:10:43.701Z,100.00
2023-04-04T01:14:47.977Z,100.00
2023-04-04T01:18:53.329Z,100.00
2023-04-04T01:22:59.601Z,100.00
2023-04-04T01:27:05.039Z,100.00
2023-04-04T01:31:13.942Z,100.00
2023-04-04T01:35:27.388Z,100.00
2023-04-04T01:39:34.112Z,100.00
2023-04-04T01:43:38.775Z,100.00
2023-04-04T01:47:43.343Z,100.00
2023-04-04T01:51:52.750Z,100.00
2023-04-04T01:55:57.264Z,100.00
2023-04-04T02:00:01.807Z,100.00
2023-04-04T02:04:07.392Z,100.00
2023-04-04T02:08:10.862Z,100.00
2023-04-04T02:12:23.889Z,100.00
2023-04-04T02:16:28.416Z,100.00
2023-04-04T02:20:31.720Z,100.00
2023-04-04T02:24:35.385Z,100.00
2023-04-04T02:28:38.631Z,100.00
2023-04-04T02:32:43.743Z,100.00
2023-04-04T02:36:51.889Z,100.00
2023-04-04T02:40:56.236Z,100.00
2023-04-04T02:44:59.699Z,100.00
2023-04-04T02:49:05.116Z,100.00
2023-04-04T02:53:10.131Z,100.00
2023-04-04T02:57:13.942Z,100.00
2023-04-04T03:01:22.016Z,100.00
2023-04-04T03:05:29.227Z,100.00
2023-04-04T03:09:32.682Z,100.00
2023-04-04T03:13:35.972Z,100.00
2023-04-04T03:17:40.102Z,100.00
2023-04-04T03:21:46.703Z,100.00
2023-04-04T03:25:49.819Z,100.00
2023-04-04T03:29:53.292Z,100.00
2023-04-04T03:33:56.582Z,100.00
2023-04-04T03:38:03.606Z,100.00
2023-04-04T03:42:06.967Z,100.00
2023-04-04T03:46:10.278Z,100.00
2023-04-04T03:50:13.554Z,100.00
2023-04-04T03:54:25.399Z,100.00
2023-04-04T03:58:30.317Z,100.00
2023-04-04T04:02:33.568Z,100.00
2023-04-04T04:06:37.462Z,100.00
2023-04-04T04:10:42.306Z,100.00
2023-04-04T04:14:45.478Z,100.00
2023-04-04T04:18:48.838Z,100.00
2023-04-04T04:22:59.502Z,100.00
2023-04-04T04:27:04.045Z,100.00
2023-04-04T04:31:08.361Z,100.00
2023-04-04T04:35:17.910Z,100.00
2023-04-04T04:39:22.408Z,100.00
2023-04-04T04:43:56.543Z,100.00
2023-04-04T04:48:02.429Z,100.00
2023-04-04T04:52:07.510Z,100.00
2023-04-04T04:56:12.767Z,100.00
2023-04-04T05:00:22.462Z,100.00
2023-04-04T05:04:27.295Z,100.00
2023-04-04T05:08:37.915Z,100.00
2023-04-04T05:12:52.611Z,100.00
2023-04-04T05:17:00.536Z,100.00
2023-04-04T05:21:07.280Z,100.00
2023-04-04T05:25:11.258Z,100.00
2023-04-04T05:29:18.554Z,100.00
2023-04-04T05:33:26.684Z,100.00
2023-04-04T05:37:41.195Z,100.00
2023-04-04T05:41:48.642Z,100.00
2023-04-04T05:45:54.629Z,100.00
2023-04-04T05:50:01.152Z,100.00
2023-04-04T05:54:07.507Z,100.00
2023-04-04T05:58:12.610Z,100.00
2023-04-04T06:02:30.782Z,100.00
2023-04-04T06:06:40.584Z,100.00
2023-04-04T06:10:43.846Z,100.00
2023-04-04T06:14:47.130Z,100.00
2023-04-04T06:18:54.462Z,100.00
2023-04-04T06:23:01.150Z,100.00
2023-04-04T06:27:05.048Z,100.00
2023-04-04T06:31:09.450Z,100.00
2023-04-04T06:35:12.692Z,100.00
2023-04-04T06:39:35.102Z,100.00
2023-04-04T06:43:42.877Z,100.00
2023-04-04T06:47:46.712Z,100.00
2023-04-04T06:51:50.827Z,100.00
2023-04-04T06:55:56.203Z,100.00
2023-04-04T06:59:59.398Z,100.00
2023-04-04T07:04:02.545Z,100.00
2023-04-04T07:08:06.876Z,100.00
2023-04-04T07:12:11.618Z,100.00
2023-04-04T07:16:14.809Z,100.00
2023-04-04T07:20:17.931Z,100.00
2023-04-04T07:24:21.643Z,100.00
2023-04-04T07:28:27.470Z,100.00
2023-04-04T07:32:30.726Z,100.00
2023-04-04T07:36:34.014Z,100.00
2023-04-04T07:40:37.990Z,100.00
2023-04-04T07:44:42.682Z,100.00
2023-04-04T07:48:46.052Z,100.00
2023-04-04T07:52:51.540Z,100.00
2023-04-04T07:56:54.808Z,100.00
2023-04-04T08:00:59.645Z,100.00
2023-04-04T08:05:02.809Z,100.00
2023-04-04T08:09:05.856Z,100.00
2023-04-04T08:13:10.423Z,100.00
2023-04-04T08:17:18.904Z,100.00
2023-04-04T08:21:22.031Z,100.00
2023-04-04T08:25:25.153Z,100.00
2023-04-04T08:29:29.093Z,100.00
2023-04-04T08:33:44.490Z,100.00
2023-04-04T08:37:50.832Z,100.00
2023-04-04T08:42:03.106Z,100.00
2023-04-04T08:46:10.096Z,100.00
2023-04-04T08:50:21.599Z,100.00
2023-04-04T08:54:26.375Z,100.00
2023-04-04T08:58:29.539Z,100.00
2023-04-04T09:02:38.649Z,100.00
2023-04-04T09:06:44.461Z,100.00
2023-04-04T09:10:49.091Z,100.00
2023-04-04T09:14:53.077Z,100.00
2023-04-04T09:18:56.142Z,100.00
2023-04-04T09:23:01.232Z,100.00
2023-04-04T09:27:04.857Z,100.00
2023-04-04T09:31:10.271Z,91.42
2023-04-04T09:35:16.038Z,90.96
2023-04-04T09:39:23.213Z,87.46
2023-04-04T09:43:27.489Z,91.17
2023-04-04T09:47:33.505Z,92.39
2023-04-04T09:51:38.493Z,90.66
2023-04-04T09:55:43.041Z,92.08
2023-04-04T09:59:47.320Z,96.26
2023-04-04T10:03:53.575Z,89.31
2023-04-04T10:07:58.695Z,86.04
2023-04-04T10:12:11.074Z,81.40
2023-04-04T10:16:14.603Z,85.52
2023-04-04T10:20:17.952Z,87.51
2023-04-04T10:24:21.074Z,82.48
2023-04-04T10:28:27.252Z,80.17
2023-04-04T10:32:39.315Z,80.76
2023-04-04T10:36:47.223Z,80.00
2023-04-04T10:40:52.748Z,82.97
2023-04-04T10:45:03.542Z,81.87
2023-04-04T10:49:13.222Z,80.45
2023-04-04T10:53:23.482Z,81.21
2023-04-04T10:57:28.254Z,77.05
2023-04-04T11:01:51.612Z,75.65
2023-04-04T11:06:01.796Z,78.45
2023-04-04T11:10:16.448Z,76.59
2023-04-04T11:14:30.447Z,77.20
2023-04-04T11:18:50.212Z,79.52
2023-04-04T11:23:04.640Z,81.14
2023-04-04T11:27:08.590Z,71.75
2023-04-04T11:31:26.037Z,76.65
2023-04-04T11:35:30.689Z,70.37
2023-04-04T11:39:34.360Z,69.61
2023-04-04T11:43:46.162Z,72.36
2023-04-04T11:47:51.442Z,68.72
2023-04-04T11:51:56.176Z,64.08
2023-04-04T11:56:02.358Z,63.20
2023-04-04T12:00:08.906Z,64.53
2023-04-04T12:04:13.233Z,62.58
2023-04-04T12:08:18.253Z,63.16
2023-04-04T12:12:23.151Z,63.51
2023-04-04T12:16:26.267Z,61.38
2023-04-04T12:20:30.787Z,64.16
2023-04-04T12:24:35.445Z,63.66
2023-04-04T12:28:40.438Z,61.38
2023-04-04T12:32:44.946Z,59.16
2023-04-04T12:36:49.107Z,62.17
2023-04-04T12:40:54.281Z,66.37
2023-04-04T12:44:59.296Z,61.85
2023-04-04T12:49:02.424Z,62.00
2023-04-04T12:53:24.204Z,63.71
2023-04-04T12:57:32.200Z,61.92
2023-04-04T13:01:39.092Z,60.29
2023-04-04T13:05:44.335Z,59.35
2023-04-04T13:09:53.920Z,61.63
2023-04-04T13:14:04.291Z,55.26
2023-04-04T13:18:16.018Z,57.40
2023-04-04T13:22:19.297Z,58.85
2023-04-04T13:26:23.301Z,59.70
2023-04-04T13:30:30.071Z,55.55
2023-04-04T13:34:33.979Z,56.66
2023-04-04T13:38:37.241Z,55.99
2023-04-04T13:42:40.297Z,52.25
2023-04-04T13:46:44.728Z,56.63
2023-04-04T13:50:51.526Z,56.12
2023-04-04T13:54:54.662Z,54.60
2023-04-04T13:58:57.787Z,52.18
2023-04-04T14:03:02.347Z,47.12
2023-04-04T14:07:05.611Z,53.59
2023-04-04T14:11:08.761Z,50.81
2023-04-04T14:15:13.331Z,48.18
2023-04-04T14:19:17.809Z,50.75
2023-04-04T14:23:21.591Z,50.30
2023-04-04T14:27:24.635Z,47.89
2023-04-04T14:31:27.801Z,48.49
2023-04-04T14:35:32.229Z,47.90
2023-04-04T14:39:35.251Z,48.42
2023-04-04T14:43:38.431Z,48.58
2023-04-04T14:47:41.762Z,47.92
2023-04-04T14:51:46.373Z,45.86
2023-04-04T14:55:49.565Z,46.10
2023-04-04T14:59:52.838Z,44.71
2023-04-04T15:03:56.321Z,46.29
2023-04-04T15:08:00.846Z,43.66
2023-04-04T15:12:04.056Z,39.61
2023-04-04T15:16:07.551Z,40.71
2023-04-04T15:20:11.905Z,43.59
2023-04-04T15:24:16.430Z,41.28
2023-04-04T15:28:20.536Z,40.41
2023-04-04T15:32:23.721Z,39.04
2023-04-04T15:36:27.908Z,42.28
2023-04-04T15:40:32.810Z,45.40
2023-04-04T15:44:35.966Z,45.80
2023-04-04T15:48:40.018Z,46.80
2023-04-04T15:52:43.040Z,47.07
2023-04-04T15:56:47.521Z,47.07
2023-04-04T16:00:51.277Z,46.68
2023-04-04T16:04:54.610Z,47.20
2023-04-04T16:08:57.822Z,47.13
2023-04-04T16:13:03.640Z,46.74
2023-04-04T16:17:06.719Z,49.29
2023-04-04T16:21:09.868Z,50.56
2023-04-04T16:25:12.903Z,45.84
2023-04-04T16:29:18.627Z,44.75
2023-04-04T16:33:24.153Z,48.85
2023-04-04T16:37:27.333Z,52.21
2023-04-04T16:41:30.451Z,51.39
2023-04-04T16:45:34.880Z,61.14
2023-04-04T16:49:37.960Z,62.08
2023-04-04T16:53:41.367Z,62.66
2023-04-04T16:57:44.571Z,67.44
2023-04-04T17:01:49.395Z,66.84
2023-04-04T17:05:56.276Z,70.44
2023-04-04T17:09:59.431Z,73.26
2023-04-04T17:14:02.833Z,74.43
2023-04-04T17:18:08.526Z,71.71
2023-04-04T17:22:12.148Z,73.61
2023-04-04T17:26:15.635Z,77.43
2023-04-04T17:30:18.693Z,77.75
2023-04-04T17:34:23.798Z,83.72
2023-04-04T17:38:26.857Z,85.94
2023-04-04T17:42:30.097Z,90.63
2023-04-04T17:46:33.230Z,93.75
2023-04-04T17:50:37.748Z,99.60
2023-04-04T17:54:41.353Z,100.00
2023-04-04T17:58:44.489Z,100.00
2023-04-04T18:02:48.128Z,100.00
2023-04-04T18:06:54.514Z,100.00
2023-04-04T18:10:58.633Z,100.00
2023-04-04T18:15:03.794Z,100.00
2023-04-04T18:19:07.172Z,100.00
2023-04-04T18:23:11.961Z,100.00
2023-04-04T18:27:15.501Z,100.00
2023-04-04T18:31:19.131Z,100.00
2023-04-04T18:35:22.321Z,100.00
2023-04-04T18:39:27.669Z,100.00
2023-04-04T18:43:30.843Z,100.00
2023-04-04T18:47:34.024Z,100.00
2023-04-04T18:51:37.323Z,100.00
2023-04-04T18:55:41.846Z,100.00
2023-04-04T18:59:45.101Z,100.00
2023-04-04T19:03:51.638Z,100.00
2023-04-04T19:07:56.205Z,100.00
2023-04-04T19:12:01.461Z,100.00
2023-04-04T19:16:05.836Z,100.00
2023-04-04T19:20:10.702Z,100.00
2023-04-04T19:24:14.289Z,100.00
2023-04-04T19:28:18.730Z,100.00
2023-04-04T19:32:27.369Z,100.00
2023-04-04T19:36:36.996Z,100.00
2023-04-04T19:40:50.551Z,100.00
2023-04-04T19:44:55.122Z,100.00
2023-04-04T19:48:58.958Z,100.00
2023-04-04T19:53:03.960Z,100.00
2023-04-04T19:57:08.788Z,100.00
2023-04-04T20:01:22.915Z,100.00
2023-04-04T20:05:56.131Z,100.00
2023-04-04T20:09:59.561Z,100.00
2023-04-04T20:14:04.404Z,100.00
2023-04-04T20:18:09.188Z,100.00
2023-04-04T20:22:12.495Z,100.00
2023-04-04T20:26:43.903Z,100.00
2023-04-04T20:30:47.028Z,100.00
2023-04-04T20:34:53.055Z,100.00
2023-04-04T20:38:56.729Z,100.00
2023-04-04T20:42:59.933Z,100.00
2023-04-04T20:47:03.022Z,100.00
2023-04-04T20:51:23.703Z,100.00
2023-04-04T20:55:29.762Z,100.00
2023-04-04T20:59:35.738Z,100.00
2023-04-04T21:03:38.914Z,100.00
2023-04-04T21:07:43.788Z,100.00
2023-04-04T21:11:46.834Z,100.00
2023-04-04T21:15:50.145Z,100.00
2023-04-04T21:19:53.262Z,100.00
2023-04-04T21:23:59.678Z,100.00
2023-04-04T21:28:03.240Z,100.00
2023-04-04T21:32:08.115Z,100.00
2023-04-04T21:36:16.778Z,100.00
2023-04-04T21:40:23.498Z,100.00
2023-04-04T21:44:28.298Z,100.00
2023-04-04T21:48:31.360Z,100.00
2023-04-04T21:52:34.428Z,100.00
2023-04-04T21:56:39.089Z,100.00
2023-04-04T22:00:42.806Z,100.00
2023-04-04T22:04:46.161Z,100.00
2023-04-04T22:08:49.341Z,100.00
2023-04-04T22:12:54.931Z,100.00
2023-04-04T22:16:59.005Z,100.00
2023-04-04T22:21:04.645Z,100.00
2023-04-04T22:25:09.504Z,100.00
2023-04-04T22:29:14.007Z,100.00
2023-04-04T22:33:17.196Z,100.00
2023-04-04T22:37:21.643Z,100.00
2023-04-04T22:41:28.614Z,100.00
2023-04-04T22:45:33.731Z,100.00
2023-04-04T22:49:37.870Z,100.00
2023-04-04T22:53:41.538Z,100.00
2023-04-04T22:57:44.812Z,100.00
2023-04-04T23:01:49.202Z,100.00
2023-04-04T23:05:52.751Z,100.00
2023-04-04T23:09:55.806Z,100.00
2023-04-04T23:13:58.886Z,100.00
2023-04-04T23:18:03.775Z,100.00
2023-04-04T23:22:07.074Z,100.00
2023-04-04T23:26:10.132Z,100.00
2023-04-04T23:30:14.017Z,100.00
2023-04-04T23:34:18.576Z,100.00
2023-04-04T23:38:22.068Z,100.00
2023-04-04T23:42:25.198Z,100.00
2023-04-04T23:46:30.341Z,100.00
2023-04-04T23:50:34.831Z,100.00
2023-04-04T23:54:38.001Z,100.00
2023-04-04T23:58:41.368Z,100.00
